sensor_id;sensor_type;location;lat;lon;timestamp;temperature;humidity
64961;SHT31;51487;52.266;10.542;2023-08-20T00:00:28;21.87;99.84
64961;SHT31;51487;52.266;10.542;2023-08-20T00:03:10;21.87;99.99
64961;SHT31;51487;52.266;10.542;2023-08-20T00:05:38;21.86;99.98
64961;SHT31;51487;52.266;10.542;2023-08-20T00:08:04;21.89;99.91
64961;SHT31;51487;52.266;10.542;2023-08-20T00:10:30;21.80;99.99
64961;SHT31;51487;52.266;10.542;2023-08-20T00:12:56;21.78;99.99
64961;SHT31;51487;52.266;10.542;2023-08-20T00:15:22;21.85;99.99
64961;SHT31;51487;52.266;10.542;2023-08-20T00:17:53;21.85;99.79
64961;SHT31;51487;52.266;10.542;2023-08-20T00:20:19;21.89;99.67
64961;SHT31;51487;52.266;10.542;2023-08-20T00:22:46;22.00;99.27
64961;SHT31;51487;52.266;10.542;2023-08-20T00:25:16;21.97;99.41
64961;SHT31;51487;52.266;10.542;2023-08-20T00:27:43;21.92;99.65
64961;SHT31;51487;52.266;10.542;2023-08-20T00:30:10;21.99;99.42
64961;SHT31;51487;52.266;10.542;2023-08-20T00:32:36;21.89;99.83
64961;SHT31;51487;52.266;10.542;2023-08-20T00:35:02;21.85;99.93
64961;SHT31;51487;52.266;10.542;2023-08-20T00:37:29;21.82;99.99
64961;SHT31;51487;52.266;10.542;2023-08-20T00:39:54;21.85;99.99
64961;SHT31;51487;52.266;10.542;2023-08-20T00:42:20;21.89;99.96
64961;SHT31;51487;52.266;10.542;2023-08-20T00:44:46;21.99;99.58
64961;SHT31;51487;52.266;10.542;2023-08-20T00:47:13;21.90;99.81
64961;SHT31;51487;52.266;10.542;2023-08-20T00:49:40;21.86;99.64
64961;SHT31;51487;52.266;10.542;2023-08-20T00:52:09;21.80;99.80
64961;SHT31;51487;52.266;10.542;2023-08-20T00:54:35;21.83;99.78
64961;SHT31;51487;52.266;10.542;2023-08-20T00:57:01;21.83;99.65
64961;SHT31;51487;52.266;10.542;2023-08-20T00:59:30;21.79;99.81
64961;SHT31;51487;52.266;10.542;2023-08-20T01:01:57;21.80;99.60
64961;SHT31;51487;52.266;10.542;2023-08-20T01:04:22;21.78;99.64
64961;SHT31;51487;52.266;10.542;2023-08-20T01:12:23;21.72;99.35
64961;SHT31;51487;52.266;10.542;2023-08-20T01:14:49;21.67;99.57
64961;SHT31;51487;52.266;10.542;2023-08-20T01:17:15;21.67;99.55
64961;SHT31;51487;52.266;10.542;2023-08-20T01:19:41;21.63;99.68
64961;SHT31;51487;52.266;10.542;2023-08-20T01:25:50;21.67;99.79
64961;SHT31;51487;52.266;10.542;2023-08-20T01:28:30;21.67;99.71
64961;SHT31;51487;52.266;10.542;2023-08-20T01:30:59;21.72;99.44
64961;SHT31;51487;52.266;10.542;2023-08-20T01:33:26;21.76;99.34
64961;SHT31;51487;52.266;10.542;2023-08-20T01:35:53;21.82;99.22
64961;SHT31;51487;52.266;10.542;2023-08-20T01:38:19;21.80;99.15
64961;SHT31;51487;52.266;10.542;2023-08-20T01:40:45;21.69;99.47
64961;SHT31;51487;52.266;10.542;2023-08-20T01:43:10;21.65;99.58
64961;SHT31;51487;52.266;10.542;2023-08-20T01:45:36;21.69;99.44
64961;SHT31;51487;52.266;10.542;2023-08-20T01:48:01;21.72;99.27
64961;SHT31;51487;52.266;10.542;2023-08-20T01:50:29;21.76;99.08
64961;SHT31;51487;52.266;10.542;2023-08-20T01:52:54;21.72;99.33
64961;SHT31;51487;52.266;10.542;2023-08-20T01:55:19;21.58;99.69
64961;SHT31;51487;52.266;10.542;2023-08-20T01:57:45;21.63;99.61
64961;SHT31;51487;52.266;10.542;2023-08-20T02:00:11;21.63;99.38
64961;SHT31;51487;52.266;10.542;2023-08-20T02:02:37;21.65;99.24
64961;SHT31;51487;52.266;10.542;2023-08-20T02:05:03;21.63;99.36
64961;SHT31;51487;52.266;10.542;2023-08-20T02:07:28;21.55;99.55
64961;SHT31;51487;52.266;10.542;2023-08-20T02:09:54;21.55;99.72
64961;SHT31;51487;52.266;10.542;2023-08-20T02:12:19;21.48;99.88
64961;SHT31;51487;52.266;10.542;2023-08-20T02:14:44;21.43;99.99
64961;SHT31;51487;52.266;10.542;2023-08-20T02:17:11;21.52;99.84
64961;SHT31;51487;52.266;10.542;2023-08-20T02:19:38;21.49;99.56
64961;SHT31;51487;52.266;10.542;2023-08-20T02:22:04;21.43;99.86
64961;SHT31;51487;52.266;10.542;2023-08-20T02:24:30;21.45;99.88
64961;SHT31;51487;52.266;10.542;2023-08-20T02:26:56;21.45;99.74
64961;SHT31;51487;52.266;10.542;2023-08-20T02:29:22;21.43;99.74
64961;SHT31;51487;52.266;10.542;2023-08-20T02:31:47;21.45;99.54
64961;SHT31;51487;52.266;10.542;2023-08-20T02:34:13;21.45;99.44
64961;SHT31;51487;52.266;10.542;2023-08-20T02:36:38;21.45;99.47
64961;SHT31;51487;52.266;10.542;2023-08-20T02:39:04;21.50;99.27
64961;SHT31;51487;52.266;10.542;2023-08-20T02:41:36;21.49;99.23
64961;SHT31;51487;52.266;10.542;2023-08-20T02:44:03;21.50;99.33
64961;SHT31;51487;52.266;10.542;2023-08-20T02:46:29;21.42;99.65
64961;SHT31;51487;52.266;10.542;2023-08-20T02:48:54;21.42;99.75
64961;SHT31;51487;52.266;10.542;2023-08-20T02:51:20;21.41;99.67
64961;SHT31;51487;52.266;10.542;2023-08-20T02:53:45;21.29;99.99
64961;SHT31;51487;52.266;10.542;2023-08-20T02:56:11;21.29;99.99
64961;SHT31;51487;52.266;10.542;2023-08-20T02:58:36;21.21;99.99
64961;SHT31;51487;52.266;10.542;2023-08-20T03:01:02;21.15;99.99
64961;SHT31;51487;52.266;10.542;2023-08-20T03:03:28;21.15;99.99
64961;SHT31;51487;52.266;10.542;2023-08-20T03:05:53;21.11;99.99
64961;SHT31;51487;52.266;10.542;2023-08-20T03:08:19;21.11;99.99
64961;SHT31;51487;52.266;10.542;2023-08-20T03:10:44;21.01;99.99
64961;SHT31;51487;52.266;10.542;2023-08-20T03:13:10;21.01;99.99
64961;SHT31;51487;52.266;10.542;2023-08-20T03:15:35;21.01;99.99
64961;SHT31;51487;52.266;10.542;2023-08-20T03:18:01;21.01;99.99
64961;SHT31;51487;52.266;10.542;2023-08-20T03:20:26;20.97;99.99
64961;SHT31;51487;52.266;10.542;2023-08-20T03:22:54;20.98;99.99
64961;SHT31;51487;52.266;10.542;2023-08-20T03:25:19;20.98;99.99
64961;SHT31;51487;52.266;10.542;2023-08-20T03:27:45;20.95;99.99
64961;SHT31;51487;52.266;10.542;2023-08-20T03:30:10;20.90;99.99
64961;SHT31;51487;52.266;10.542;2023-08-20T03:32:36;20.85;99.99
64961;SHT31;51487;52.266;10.542;2023-08-20T03:35:02;20.87;99.99
64961;SHT31;51487;52.266;10.542;2023-08-20T03:37:28;20.80;99.99
64961;SHT31;51487;52.266;10.542;2023-08-20T03:39:53;20.74;99.99
64961;SHT31;51487;52.266;10.542;2023-08-20T03:42:19;20.76;99.99
64961;SHT31;51487;52.266;10.542;2023-08-20T03:44:44;20.64;99.99
64961;SHT31;51487;52.266;10.542;2023-08-20T03:47:10;20.70;99.99
64961;SHT31;51487;52.266;10.542;2023-08-20T03:49:36;20.64;99.99
64961;SHT31;51487;52.266;10.542;2023-08-20T03:52:01;20.63;99.99
64961;SHT31;51487;52.266;10.542;2023-08-20T03:54:28;20.60;99.99
64961;SHT31;51487;52.266;10.542;2023-08-20T03:56:55;20.59;99.99
64961;SHT31;51487;52.266;10.542;2023-08-20T03:59:20;20.57;99.99
64961;SHT31;51487;52.266;10.542;2023-08-20T04:01:46;20.54;99.99
64961;SHT31;51487;52.266;10.542;2023-08-20T04:04:11;20.54;99.99
64961;SHT31;51487;52.266;10.542;2023-08-20T04:06:37;20.46;99.99
64961;SHT31;51487;52.266;10.542;2023-08-20T04:09:02;20.49;99.99
64961;SHT31;51487;52.266;10.542;2023-08-20T04:11:28;20.47;99.99
64961;SHT31;51487;52.266;10.542;2023-08-20T04:13:54;20.49;99.99
64961;SHT31;51487;52.266;10.542;2023-08-20T04:16:19;20.54;99.99
64961;SHT31;51487;52.266;10.542;2023-08-20T04:18:45;20.49;99.99
64961;SHT31;51487;52.266;10.542;2023-08-20T04:21:10;20.53;99.99
64961;SHT31;51487;52.266;10.542;2023-08-20T04:23:36;20.46;99.99
64961;SHT31;51487;52.266;10.542;2023-08-20T04:26:01;20.52;99.99
64961;SHT31;51487;52.266;10.542;2023-08-20T04:28:27;20.50;99.99
64961;SHT31;51487;52.266;10.542;2023-08-20T04:30:53;20.57;99.99
64961;SHT31;51487;52.266;10.542;2023-08-20T04:33:20;20.54;99.99
64961;SHT31;51487;52.266;10.542;2023-08-20T04:35:46;20.57;99.99
64961;SHT31;51487;52.266;10.542;2023-08-20T04:38:12;20.52;99.99
64961;SHT31;51487;52.266;10.542;2023-08-20T04:40:37;20.50;99.99
64961;SHT31;51487;52.266;10.542;2023-08-20T04:43:03;20.63;99.99
64961;SHT31;51487;52.266;10.542;2023-08-20T04:45:28;20.67;99.99
64961;SHT31;51487;52.266;10.542;2023-08-20T04:47:54;20.69;99.99
64961;SHT31;51487;52.266;10.542;2023-08-20T04:50:19;20.69;99.99
64961;SHT31;51487;52.266;10.542;2023-08-20T04:52:45;20.74;99.99
64961;SHT31;51487;52.266;10.542;2023-08-20T04:55:10;20.85;99.99
64961;SHT31;51487;52.266;10.542;2023-08-20T04:57:36;20.79;99.99
64961;SHT31;51487;52.266;10.542;2023-08-20T05:00:02;20.74;99.99
64961;SHT31;51487;52.266;10.542;2023-08-20T05:02:28;20.73;99.99
64961;SHT31;51487;52.266;10.542;2023-08-20T05:04:54;20.63;99.99
64961;SHT31;51487;52.266;10.542;2023-08-20T05:07:20;20.85;99.99
64961;SHT31;51487;52.266;10.542;2023-08-20T05:09:46;20.84;99.99
64961;SHT31;51487;52.266;10.542;2023-08-20T05:12:11;20.81;99.99
64961;SHT31;51487;52.266;10.542;2023-08-20T05:14:36;20.83;99.90
64961;SHT31;51487;52.266;10.542;2023-08-20T05:17:02;20.67;99.99
64961;SHT31;51487;52.266;10.542;2023-08-20T05:19:28;20.81;99.69
64961;SHT31;51487;52.266;10.542;2023-08-20T05:21:53;20.85;99.40
64961;SHT31;51487;52.266;10.542;2023-08-20T05:24:25;20.85;99.39
64961;SHT31;51487;52.266;10.542;2023-08-20T05:27:12;20.92;98.92
64961;SHT31;51487;52.266;10.542;2023-08-20T05:29:40;20.97;98.41
64961;SHT31;51487;52.266;10.542;2023-08-20T05:32:07;20.97;98.45
64961;SHT31;51487;52.266;10.542;2023-08-20T05:34:32;20.94;96.93
64961;SHT31;51487;52.266;10.542;2023-08-20T05:36:58;20.98;97.26
64961;SHT31;51487;52.266;10.542;2023-08-20T05:39:24;20.95;97.55
64961;SHT31;51487;52.266;10.542;2023-08-20T05:41:52;21.02;97.05
64961;SHT31;51487;52.266;10.542;2023-08-20T05:44:18;21.14;96.30
64961;SHT31;51487;52.266;10.542;2023-08-20T05:46:43;21.22;95.88
64961;SHT31;51487;52.266;10.542;2023-08-20T05:49:09;21.22;95.22
64961;SHT31;51487;52.266;10.542;2023-08-20T05:51:34;21.24;95.85
64961;SHT31;51487;52.266;10.542;2023-08-20T05:53:59;21.07;95.89
64961;SHT31;51487;52.266;10.542;2023-08-20T05:56:25;21.08;95.48
64961;SHT31;51487;52.266;10.542;2023-08-20T05:58:51;21.15;94.70
64961;SHT31;51487;52.266;10.542;2023-08-20T06:01:16;21.27;95.19
64961;SHT31;51487;52.266;10.542;2023-08-20T06:03:42;21.39;94.07
64961;SHT31;51487;52.266;10.542;2023-08-20T06:06:07;21.53;93.37
64961;SHT31;51487;52.266;10.542;2023-08-20T06:08:32;21.42;92.67
64961;SHT31;51487;52.266;10.542;2023-08-20T06:10:58;21.49;93.08
64961;SHT31;51487;52.266;10.542;2023-08-20T06:13:23;21.58;92.89
64961;SHT31;51487;52.266;10.542;2023-08-20T06:15:49;21.62;93.00
64961;SHT31;51487;52.266;10.542;2023-08-20T06:18:14;21.67;90.84
64961;SHT31;51487;52.266;10.542;2023-08-20T06:20:40;21.62;90.67
64961;SHT31;51487;52.266;10.542;2023-08-20T06:23:06;21.65;90.84
64961;SHT31;51487;52.266;10.542;2023-08-20T06:25:31;21.73;90.31
64961;SHT31;51487;52.266;10.542;2023-08-20T06:27:57;21.73;90.56
64961;SHT31;51487;52.266;10.542;2023-08-20T06:30:22;21.70;91.05
64961;SHT31;51487;52.266;10.542;2023-08-20T06:32:48;21.69;91.60
64961;SHT31;51487;52.266;10.542;2023-08-20T06:35:13;21.62;91.89
64961;SHT31;51487;52.266;10.542;2023-08-20T06:37:39;21.59;91.79
64961;SHT31;51487;52.266;10.542;2023-08-20T06:40:07;21.59;92.21
64961;SHT31;51487;52.266;10.542;2023-08-20T06:42:33;21.59;91.74
64961;SHT31;51487;52.266;10.542;2023-08-20T06:44:58;21.56;91.64
64961;SHT31;51487;52.266;10.542;2023-08-20T06:47:24;21.58;91.01
64961;SHT31;51487;52.266;10.542;2023-08-20T06:49:50;21.63;90.04
64961;SHT31;51487;52.266;10.542;2023-08-20T06:52:16;21.66;87.94
64961;SHT31;51487;52.266;10.542;2023-08-20T06:54:42;21.63;87.91
64961;SHT31;51487;52.266;10.542;2023-08-20T06:57:07;21.69;87.67
64961;SHT31;51487;52.266;10.542;2023-08-20T06:59:33;21.79;87.20
64961;SHT31;51487;52.266;10.542;2023-08-20T07:01:58;21.72;88.46
64961;SHT31;51487;52.266;10.542;2023-08-20T07:04:24;21.66;88.76
64961;SHT31;51487;52.266;10.542;2023-08-20T07:06:51;21.65;89.02
64961;SHT31;51487;52.266;10.542;2023-08-20T07:09:16;21.73;88.69
64961;SHT31;51487;52.266;10.542;2023-08-20T07:11:42;21.66;87.83
64961;SHT31;51487;52.266;10.542;2023-08-20T07:14:07;21.69;87.35
64961;SHT31;51487;52.266;10.542;2023-08-20T07:16:33;21.70;87.81
64961;SHT31;51487;52.266;10.542;2023-08-20T07:18:58;21.79;88.00
64961;SHT31;51487;52.266;10.542;2023-08-20T07:21:24;21.80;88.29
64961;SHT31;51487;52.266;10.542;2023-08-20T07:23:49;21.83;88.37
64961;SHT31;51487;52.266;10.542;2023-08-20T07:26:15;21.86;88.33
64961;SHT31;51487;52.266;10.542;2023-08-20T07:28:41;21.89;88.34
64961;SHT31;51487;52.266;10.542;2023-08-20T07:31:25;21.89;87.93
64961;SHT31;51487;52.266;10.542;2023-08-20T07:33:52;21.94;88.11
64961;SHT31;51487;52.266;10.542;2023-08-20T07:36:19;21.99;89.03
64961;SHT31;51487;52.266;10.542;2023-08-20T07:38:45;22.00;88.64
64961;SHT31;51487;52.266;10.542;2023-08-20T07:41:11;22.03;88.56
64961;SHT31;51487;52.266;10.542;2023-08-20T07:43:39;22.07;88.25
64961;SHT31;51487;52.266;10.542;2023-08-20T07:46:06;22.10;87.61
64961;SHT31;51487;52.266;10.542;2023-08-20T07:48:32;22.14;87.58
64961;SHT31;51487;52.266;10.542;2023-08-20T07:50:57;22.41;85.46
64961;SHT31;51487;52.266;10.542;2023-08-20T07:53:23;22.57;84.99
64961;SHT31;51487;52.266;10.542;2023-08-20T07:55:48;22.51;85.27
64961;SHT31;51487;52.266;10.542;2023-08-20T07:58:14;22.48;85.44
64961;SHT31;51487;52.266;10.542;2023-08-20T08:00:42;22.45;85.39
64961;SHT31;51487;52.266;10.542;2023-08-20T08:03:08;22.49;84.37
64961;SHT31;51487;52.266;10.542;2023-08-20T08:05:35;22.62;84.80
64961;SHT31;51487;52.266;10.542;2023-08-20T08:08:01;22.71;85.03
64961;SHT31;51487;52.266;10.542;2023-08-20T08:10:28;22.69;85.66
64961;SHT31;51487;52.266;10.542;2023-08-20T08:12:53;22.71;85.96
64961;SHT31;51487;52.266;10.542;2023-08-20T08:15:19;22.79;85.02
64961;SHT31;51487;52.266;10.542;2023-08-20T08:17:44;22.81;84.69
64961;SHT31;51487;52.266;10.542;2023-08-20T08:20:10;22.92;84.30
64961;SHT31;51487;52.266;10.542;2023-08-20T08:22:36;23.10;82.95
64961;SHT31;51487;52.266;10.542;2023-08-20T08:25:01;23.09;82.79
64961;SHT31;51487;52.266;10.542;2023-08-20T08:27:27;23.15;82.84
64961;SHT31;51487;52.266;10.542;2023-08-20T08:29:52;23.17;83.85
64961;SHT31;51487;52.266;10.542;2023-08-20T08:32:17;23.13;83.61
64961;SHT31;51487;52.266;10.542;2023-08-20T08:34:43;23.22;82.24
64961;SHT31;51487;52.266;10.542;2023-08-20T08:37:08;23.30;80.86
64961;SHT31;51487;52.266;10.542;2023-08-20T08:39:34;23.26;80.88
64961;SHT31;51487;52.266;10.542;2023-08-20T08:42:02;23.26;82.43
64961;SHT31;51487;52.266;10.542;2023-08-20T08:44:31;23.27;83.35
64961;SHT31;51487;52.266;10.542;2023-08-20T08:47:04;23.30;82.36
64961;SHT31;51487;52.266;10.542;2023-08-20T08:49:33;23.42;80.81
64961;SHT31;51487;52.266;10.542;2023-08-20T08:51:59;23.46;79.80
64961;SHT31;51487;52.266;10.542;2023-08-20T08:54:26;23.63;78.57
64961;SHT31;51487;52.266;10.542;2023-08-20T08:56:52;23.75;78.57
64961;SHT31;51487;52.266;10.542;2023-08-20T08:59:19;23.79;77.74
64961;SHT31;51487;52.266;10.542;2023-08-20T09:01:45;23.81;77.48
64961;SHT31;51487;52.266;10.542;2023-08-20T09:04:10;23.89;77.18
64961;SHT31;51487;52.266;10.542;2023-08-20T09:06:53;23.85;77.51
64961;SHT31;51487;52.266;10.542;2023-08-20T09:09:21;23.97;77.73
64961;SHT31;51487;52.266;10.542;2023-08-20T09:11:48;24.06;77.95
64961;SHT31;51487;52.266;10.542;2023-08-20T09:14:28;24.09;77.21
64961;SHT31;51487;52.266;10.542;2023-08-20T09:16:58;24.22;77.78
64961;SHT31;51487;52.266;10.542;2023-08-20T09:19:28;24.12;77.27
64961;SHT31;51487;52.266;10.542;2023-08-20T09:21:53;24.21;77.78
64961;SHT31;51487;52.266;10.542;2023-08-20T09:24:53;24.18;77.18
64961;SHT31;51487;52.266;10.542;2023-08-20T09:27:19;24.13;78.50
64961;SHT31;51487;52.266;10.542;2023-08-20T09:29:45;24.15;76.55
64961;SHT31;51487;52.266;10.542;2023-08-20T09:32:22;24.25;76.92
64961;SHT31;51487;52.266;10.542;2023-08-20T09:34:52;24.40;76.71
64961;SHT31;51487;52.266;10.542;2023-08-20T09:37:20;24.43;74.68
64961;SHT31;51487;52.266;10.542;2023-08-20T09:39:46;24.43;74.50
64961;SHT31;51487;52.266;10.542;2023-08-20T09:42:13;24.46;74.46
64961;SHT31;51487;52.266;10.542;2023-08-20T09:44:42;24.49;73.62
64961;SHT31;51487;52.266;10.542;2023-08-20T09:47:11;24.39;74.38
64961;SHT31;51487;52.266;10.542;2023-08-20T09:49:47;24.33;77.37
64961;SHT31;51487;52.266;10.542;2023-08-20T09:52:42;24.32;75.87
64961;SHT31;51487;52.266;10.542;2023-08-20T09:55:16;24.63;74.33
64961;SHT31;51487;52.266;10.542;2023-08-20T09:57:42;24.87;74.20
64961;SHT31;51487;52.266;10.542;2023-08-20T10:00:10;24.87;74.51
64961;SHT31;51487;52.266;10.542;2023-08-20T10:02:40;24.84;73.09
64961;SHT31;51487;52.266;10.542;2023-08-20T10:05:08;24.74;74.25
64961;SHT31;51487;52.266;10.542;2023-08-20T10:07:36;24.80;73.94
64961;SHT31;51487;52.266;10.542;2023-08-20T10:10:07;24.79;73.77
64961;SHT31;51487;52.266;10.542;2023-08-20T10:12:35;24.79;74.46
64961;SHT31;51487;52.266;10.542;2023-08-20T10:15:02;25.03;72.96
64961;SHT31;51487;52.266;10.542;2023-08-20T10:17:33;25.18;72.22
64961;SHT31;51487;52.266;10.542;2023-08-20T10:20:01;25.15;71.21
64961;SHT31;51487;52.266;10.542;2023-08-20T10:22:42;25.27;70.31
64961;SHT31;51487;52.266;10.542;2023-08-20T10:25:12;25.17;70.84
64961;SHT31;51487;52.266;10.542;2023-08-20T10:27:40;25.22;70.03
64961;SHT31;51487;52.266;10.542;2023-08-20T10:30:17;25.10;70.56
64961;SHT31;51487;52.266;10.542;2023-08-20T10:32:54;25.24;71.45
64961;SHT31;51487;52.266;10.542;2023-08-20T10:35:23;25.28;70.30
64961;SHT31;51487;52.266;10.542;2023-08-20T10:38:17;25.25;70.15
64961;SHT31;51487;52.266;10.542;2023-08-20T10:40:59;25.30;69.89
64961;SHT31;51487;52.266;10.542;2023-08-20T10:46:24;25.45;68.39
64961;SHT31;51487;52.266;10.542;2023-08-20T10:48:56;25.38;66.64
64961;SHT31;51487;52.266;10.542;2023-08-20T10:51:59;25.57;66.53
64961;SHT31;51487;52.266;10.542;2023-08-20T10:54:21;25.39;68.02
64961;SHT31;51487;52.266;10.542;2023-08-20T10:56:54;25.37;67.60
64961;SHT31;51487;52.266;10.542;2023-08-20T10:59:27;25.27;69.10
64961;SHT31;51487;52.266;10.542;2023-08-20T11:01:55;25.51;66.36
64961;SHT31;51487;52.266;10.542;2023-08-20T11:04:23;25.59;65.24
64961;SHT31;51487;52.266;10.542;2023-08-20T11:06:56;25.61;65.66
64961;SHT31;51487;52.266;10.542;2023-08-20T11:09:24;25.69;66.08
64961;SHT31;51487;52.266;10.542;2023-08-20T11:11:51;25.86;66.35
64961;SHT31;51487;52.266;10.542;2023-08-20T11:14:18;25.92;66.38
64961;SHT31;51487;52.266;10.542;2023-08-20T11:16:46;25.90;66.44
64961;SHT31;51487;52.266;10.542;2023-08-20T11:19:13;25.78;67.57
64961;SHT31;51487;52.266;10.542;2023-08-20T11:21:41;25.83;66.97
64961;SHT31;51487;52.266;10.542;2023-08-20T11:24:08;25.82;66.76
64961;SHT31;51487;52.266;10.542;2023-08-20T11:26:35;25.93;66.90
64961;SHT31;51487;52.266;10.542;2023-08-20T11:29:13;25.93;66.36
64961;SHT31;51487;52.266;10.542;2023-08-20T11:31:40;26.03;66.53
64961;SHT31;51487;52.266;10.542;2023-08-20T11:34:07;26.10;66.99
64961;SHT31;51487;52.266;10.542;2023-08-20T11:36:40;25.94;66.99
64961;SHT31;51487;52.266;10.542;2023-08-20T11:39:07;25.93;65.45
64961;SHT31;51487;52.266;10.542;2023-08-20T11:41:37;26.00;64.75
64961;SHT31;51487;52.266;10.542;2023-08-20T11:44:03;26.00;64.35
64961;SHT31;51487;52.266;10.542;2023-08-20T11:46:29;25.99;65.66
64961;SHT31;51487;52.266;10.542;2023-08-20T11:49:09;26.21;65.42
64961;SHT31;51487;52.266;10.542;2023-08-20T11:51:40;26.23;65.27
64961;SHT31;51487;52.266;10.542;2023-08-20T11:54:26;26.20;65.15
64961;SHT31;51487;52.266;10.542;2023-08-20T11:56:52;26.26;65.43
64961;SHT31;51487;52.266;10.542;2023-08-20T11:59:20;26.34;66.10
64961;SHT31;51487;52.266;10.542;2023-08-20T12:01:54;26.34;65.13
64961;SHT31;51487;52.266;10.542;2023-08-20T12:04:25;26.18;65.16
64961;SHT31;51487;52.266;10.542;2023-08-20T12:07:14;26.34;65.49
64961;SHT31;51487;52.266;10.542;2023-08-20T12:09:40;26.41;65.56
64961;SHT31;51487;52.266;10.542;2023-08-20T12:12:09;26.51;66.14
64961;SHT31;51487;52.266;10.542;2023-08-20T12:14:35;26.51;65.47
64961;SHT31;51487;52.266;10.542;2023-08-20T12:17:01;26.55;65.63
64961;SHT31;51487;52.266;10.542;2023-08-20T12:19:28;26.48;65.87
64961;SHT31;51487;52.266;10.542;2023-08-20T12:21:54;26.62;65.30
64961;SHT31;51487;52.266;10.542;2023-08-20T12:24:19;26.71;65.44
64961;SHT31;51487;52.266;10.542;2023-08-20T12:26:46;26.68;64.55
64961;SHT31;51487;52.266;10.542;2023-08-20T12:29:11;26.69;65.58
64961;SHT31;51487;52.266;10.542;2023-08-20T12:31:38;26.64;64.34
64961;SHT31;51487;52.266;10.542;2023-08-20T12:34:05;26.44;65.02
64961;SHT31;51487;52.266;10.542;2023-08-20T12:36:30;26.47;65.80
64961;SHT31;51487;52.266;10.542;2023-08-20T12:38:56;26.43;66.48
64961;SHT31;51487;52.266;10.542;2023-08-20T12:41:22;26.61;66.87
64961;SHT31;51487;52.266;10.542;2023-08-20T12:43:47;26.75;65.93
64961;SHT31;51487;52.266;10.542;2023-08-20T12:46:13;26.78;66.23
64961;SHT31;51487;52.266;10.542;2023-08-20T12:48:39;26.88;65.99
64961;SHT31;51487;52.266;10.542;2023-08-20T12:51:05;26.96;65.08
64961;SHT31;51487;52.266;10.542;2023-08-20T12:53:31;26.99;65.00
64961;SHT31;51487;52.266;10.542;2023-08-20T12:55:57;26.88;65.01
64961;SHT31;51487;52.266;10.542;2023-08-20T12:58:23;26.85;65.00
64961;SHT31;51487;52.266;10.542;2023-08-20T13:00:50;26.89;64.86
64961;SHT31;51487;52.266;10.542;2023-08-20T13:03:16;26.95;64.73
64961;SHT31;51487;52.266;10.542;2023-08-20T13:05:42;26.99;64.45
64961;SHT31;51487;52.266;10.542;2023-08-20T13:08:08;27.17;64.50
64961;SHT31;51487;52.266;10.542;2023-08-20T13:10:36;27.13;63.81
64961;SHT31;51487;52.266;10.542;2023-08-20T13:13:02;27.12;64.10
64961;SHT31;51487;52.266;10.542;2023-08-20T13:15:29;27.15;63.98
64961;SHT31;51487;52.266;10.542;2023-08-20T13:17:55;27.22;64.07
64961;SHT31;51487;52.266;10.542;2023-08-20T13:20:21;27.19;64.08
64961;SHT31;51487;52.266;10.542;2023-08-20T13:22:49;27.26;64.78
64961;SHT31;51487;52.266;10.542;2023-08-20T13:25:15;27.20;64.37
64961;SHT31;51487;52.266;10.542;2023-08-20T13:27:41;27.15;66.15
64961;SHT31;51487;52.266;10.542;2023-08-20T13:30:08;27.20;64.25
64961;SHT31;51487;52.266;10.542;2023-08-20T13:32:35;27.06;64.30
64961;SHT31;51487;52.266;10.542;2023-08-20T13:35:00;27.16;64.40
64961;SHT31;51487;52.266;10.542;2023-08-20T13:37:28;27.27;64.12
64961;SHT31;51487;52.266;10.542;2023-08-20T13:39:54;27.35;64.00
64961;SHT31;51487;52.266;10.542;2023-08-20T13:42:19;27.43;64.01
64961;SHT31;51487;52.266;10.542;2023-08-20T13:44:45;27.53;63.35
64961;SHT31;51487;52.266;10.542;2023-08-20T13:47:10;27.56;63.32
64961;SHT31;51487;52.266;10.542;2023-08-20T13:49:36;27.61;63.45
64961;SHT31;51487;52.266;10.542;2023-08-20T13:52:01;27.74;63.01
64961;SHT31;51487;52.266;10.542;2023-08-20T13:54:27;27.77;62.32
64961;SHT31;51487;52.266;10.542;2023-08-20T13:56:52;27.80;62.68
64961;SHT31;51487;52.266;10.542;2023-08-20T13:59:18;27.77;61.48
64961;SHT31;51487;52.266;10.542;2023-08-20T14:01:43;27.94;61.90
64961;SHT31;51487;52.266;10.542;2023-08-20T14:04:09;27.93;60.82
64961;SHT31;51487;52.266;10.542;2023-08-20T14:06:34;27.94;62.07
64961;SHT31;51487;52.266;10.542;2023-08-20T14:09:00;27.93;62.26
64961;SHT31;51487;52.266;10.542;2023-08-20T14:11:26;27.76;61.76
64961;SHT31;51487;52.266;10.542;2023-08-20T14:13:51;27.81;61.90
64961;SHT31;51487;52.266;10.542;2023-08-20T14:16:17;27.97;62.15
64961;SHT31;51487;52.266;10.542;2023-08-20T14:18:42;28.00;61.80
64961;SHT31;51487;52.266;10.542;2023-08-20T14:21:08;27.94;62.44
64961;SHT31;51487;52.266;10.542;2023-08-20T14:23:33;28.05;61.58
64961;SHT31;51487;52.266;10.542;2023-08-20T14:26:00;28.08;61.91
64961;SHT31;51487;52.266;10.542;2023-08-20T14:28:26;28.00;61.15
64961;SHT31;51487;52.266;10.542;2023-08-20T14:30:53;27.87;61.89
64961;SHT31;51487;52.266;10.542;2023-08-20T14:33:20;28.06;61.17
64961;SHT31;51487;52.266;10.542;2023-08-20T14:35:46;28.01;61.47
64961;SHT31;51487;52.266;10.542;2023-08-20T14:38:12;28.01;61.48
64961;SHT31;51487;52.266;10.542;2023-08-20T14:40:40;28.04;62.13
64961;SHT31;51487;52.266;10.542;2023-08-20T14:43:09;28.05;61.70
64961;SHT31;51487;52.266;10.542;2023-08-20T14:45:35;28.00;62.22
64961;SHT31;51487;52.266;10.542;2023-08-20T14:48:00;28.08;62.20
64961;SHT31;51487;52.266;10.542;2023-08-20T14:50:26;27.83;61.54
64961;SHT31;51487;52.266;10.542;2023-08-20T14:52:52;28.06;61.70
64961;SHT31;51487;52.266;10.542;2023-08-20T14:55:19;28.19;61.86
64961;SHT31;51487;52.266;10.542;2023-08-20T14:57:45;28.16;61.30
64961;SHT31;51487;52.266;10.542;2023-08-20T15:00:12;28.16;61.05
64961;SHT31;51487;52.266;10.542;2023-08-20T15:02:43;28.31;60.24
64961;SHT31;51487;52.266;10.542;2023-08-20T15:05:10;28.48;60.25
64961;SHT31;51487;52.266;10.542;2023-08-20T15:07:36;28.11;59.92
64961;SHT31;51487;52.266;10.542;2023-08-20T15:10:05;28.42;59.81
64961;SHT31;51487;52.266;10.542;2023-08-20T15:12:33;28.28;60.07
64961;SHT31;51487;52.266;10.542;2023-08-20T15:15:01;28.06;60.51
64961;SHT31;51487;52.266;10.542;2023-08-20T15:17:28;27.95;60.82
64961;SHT31;51487;52.266;10.542;2023-08-20T15:19:54;27.91;60.87
64961;SHT31;51487;52.266;10.542;2023-08-20T15:22:19;27.90;60.79
64961;SHT31;51487;52.266;10.542;2023-08-20T15:24:44;27.87;60.54
64961;SHT31;51487;52.266;10.542;2023-08-20T15:27:10;27.77;60.63